createdAt,value
2019-03-25T00:00:18.813Z,13.78
2019-03-25T00:02:48.653Z,13.85
2019-03-25T00:05:17.782Z,13.90
2019-03-25T00:07:46.923Z,13.90
2019-03-25T00:10:16.194Z,13.86
2019-03-25T00:12:45.406Z,13.88
2019-03-25T00:15:14.645Z,13.90
2019-03-25T00:17:43.784Z,13.90
2019-03-25T00:20:13.056Z,13.90
2019-03-25T00:22:42.322Z,13.95
2019-03-25T00:25:11.526Z,13.98
2019-03-25T00:27:40.692Z,14.04
2019-03-25T00:30:10.326Z,14.08
2019-03-25T00:32:39.683Z,14.09
2019-03-25T00:35:09.003Z,14.09
2019-03-25T00:37:38.245Z,14.10
2019-03-25T00:40:08.054Z,14.12
2019-03-25T00:42:37.401Z,14.11
2019-03-25T00:45:08.083Z,14.08
2019-03-25T00:47:37.231Z,14.06
2019-03-25T00:50:07.306Z,14.01
2019-03-25T00:52:36.495Z,13.93
2019-03-25T00:55:06.805Z,13.88
2019-03-25T00:57:36.029Z,13.89
2019-03-25T01:00:07.247Z,13.88
2019-03-25T01:02:36.559Z,13.88
2019-03-25T01:05:06.472Z,13.90
2019-03-25T01:07:35.636Z,13.89
2019-03-25T01:10:07.507Z,13.88
2019-03-25T01:12:36.681Z,13.87
2019-03-25T01:15:09.383Z,13.83
2019-03-25T01:17:38.583Z,13.73
2019-03-25T01:20:08.956Z,13.68
2019-03-25T01:22:38.221Z,13.73
2019-03-25T01:25:07.432Z,13.82
2019-03-25T01:27:36.577Z,13.86
2019-03-25T01:30:08.144Z,13.86
2019-03-25T01:32:37.280Z,13.89
2019-03-25T01:35:07.883Z,13.85
2019-03-25T01:37:37.115Z,13.72
2019-03-25T01:40:07.911Z,13.45
2019-03-25T01:42:37.139Z,13.15
2019-03-25T01:45:06.980Z,13.06
2019-03-25T01:47:36.192Z,12.98
2019-03-25T01:50:06.892Z,12.89
2019-03-25T01:52:36.061Z,12.79
2019-03-25T01:55:13.538Z,12.69
2019-03-25T01:57:37.351Z,12.61
2019-03-25T02:00:07.596Z,12.48
2019-03-25T02:02:36.816Z,12.33
2019-03-25T02:05:07.120Z,12.20
2019-03-25T02:07:36.343Z,12.11
2019-03-25T02:10:07.250Z,12.02
2019-03-25T02:12:36.475Z,11.89
2019-03-25T02:15:06.896Z,11.77
2019-03-25T02:17:36.101Z,11.69
2019-03-25T02:20:06.412Z,11.61
2019-03-25T02:22:35.785Z,11.57
2019-03-25T02:25:06.488Z,11.47
2019-03-25T02:27:35.696Z,11.40
2019-03-25T02:30:07.658Z,11.34
2019-03-25T02:32:36.938Z,11.30
2019-03-25T02:35:07.363Z,11.23
2019-03-25T02:37:36.607Z,11.17
2019-03-25T02:40:07.271Z,11.08
2019-03-25T02:42:36.541Z,10.94
2019-03-25T02:45:07.586Z,10.83
2019-03-25T02:47:36.719Z,10.77
2019-03-25T02:50:06.840Z,10.73
2019-03-25T02:52:35.975Z,10.69
2019-03-25T02:55:06.799Z,10.65
2019-03-25T02:57:36.090Z,10.62
2019-03-25T03:00:07.695Z,10.62
2019-03-25T03:02:36.920Z,10.57
2019-03-25T03:05:07.441Z,10.56
2019-03-25T03:07:36.687Z,10.54
2019-03-25T03:10:07.487Z,10.53
2019-03-25T03:12:36.699Z,10.49
2019-03-25T03:15:07.755Z,10.43
2019-03-25T03:17:37.032Z,10.39
2019-03-25T03:20:07.570Z,10.32
2019-03-25T03:22:36.815Z,10.24
2019-03-25T03:25:06.585Z,10.17
2019-03-25T03:27:35.684Z,10.15
2019-03-25T03:30:07.050Z,10.13
2019-03-25T03:32:36.263Z,10.09
2019-03-25T03:35:07.272Z,10.07
2019-03-25T03:37:36.521Z,10.04
2019-03-25T03:40:07.219Z,9.99
2019-03-25T03:42:36.355Z,9.95
2019-03-25T03:45:06.998Z,9.88
2019-03-25T03:47:36.224Z,9.80
2019-03-25T03:50:07.035Z,9.75
2019-03-25T03:52:36.787Z,9.85
2019-03-25T03:55:06.990Z,9.89
2019-03-25T03:57:36.689Z,9.87
2019-03-25T04:00:08.302Z,9.96
2019-03-25T04:02:37.444Z,9.94
2019-03-25T04:05:06.914Z,9.87
2019-03-25T04:07:36.192Z,9.79
2019-03-25T04:10:07.119Z,9.75
2019-03-25T04:12:36.315Z,9.65
2019-03-25T04:15:07.152Z,9.57
2019-03-25T04:17:36.294Z,9.47
2019-03-25T04:20:07.403Z,9.35
2019-03-25T04:22:36.624Z,9.29
2019-03-25T04:25:06.797Z,9.25
2019-03-25T04:27:35.935Z,9.21
2019-03-25T04:30:06.401Z,9.19
2019-03-25T04:32:35.659Z,9.15
2019-03-25T04:35:06.056Z,9.11
2019-03-25T04:37:35.253Z,9.11
2019-03-25T04:40:06.527Z,9.09
2019-03-25T04:42:35.727Z,9.16
2019-03-25T04:45:06.965Z,9.18
2019-03-25T04:47:36.099Z,9.22
2019-03-25T04:50:06.425Z,9.22
2019-03-25T04:52:35.603Z,9.27
2019-03-25T04:55:06.123Z,9.18
2019-03-25T04:57:35.169Z,9.18
2019-03-25T05:00:05.432Z,9.03
2019-03-25T05:02:34.635Z,9.05
2019-03-25T05:05:04.111Z,9.06
2019-03-25T05:07:33.277Z,9.11
2019-03-25T05:10:02.462Z,9.19
2019-03-25T05:12:31.670Z,9.41
2019-03-25T05:15:00.826Z,9.41
2019-03-25T05:17:30.027Z,9.51
2019-03-25T05:19:59.148Z,9.62
2019-03-25T05:22:28.353Z,9.72
2019-03-25T05:24:57.473Z,9.84
2019-03-25T05:27:26.677Z,9.98
2019-03-25T05:29:55.888Z,10.15
2019-03-25T05:32:25.157Z,10.27
2019-03-25T05:34:54.293Z,10.43
2019-03-25T05:37:23.566Z,10.56
2019-03-25T05:39:52.710Z,10.72
2019-03-25T05:42:21.856Z,10.90
2019-03-25T05:44:51.025Z,11.04
2019-03-25T05:47:20.224Z,11.15
2019-03-25T05:49:49.314Z,11.27
2019-03-25T05:52:18.444Z,11.34
2019-03-25T05:54:47.690Z,11.46
2019-03-25T05:57:16.826Z,11.58
2019-03-25T05:59:45.957Z,11.74
2019-03-25T06:02:15.102Z,11.83
2019-03-25T06:04:44.246Z,11.87
2019-03-25T06:07:13.352Z,11.65
2019-03-25T06:09:42.512Z,11.40
2019-03-25T06:12:11.724Z,11.41
2019-03-25T06:14:40.920Z,11.28
2019-03-25T06:17:10.137Z,11.08
2019-03-25T06:19:40.112Z,11.06
2019-03-25T06:22:09.382Z,10.82
2019-03-25T06:24:38.516Z,10.61
2019-03-25T06:27:14.027Z,10.84
2019-03-25T06:29:38.581Z,11.06
2019-03-25T06:32:07.764Z,11.40
2019-03-25T06:34:37.031Z,11.52
2019-03-25T06:37:06.278Z,11.78
2019-03-25T06:39:35.367Z,12.02
2019-03-25T06:42:04.590Z,12.35
2019-03-25T06:44:33.703Z,12.52
2019-03-25T06:47:02.863Z,12.70
2019-03-25T06:49:31.998Z,12.72
2019-03-25T06:52:01.246Z,12.97
2019-03-25T06:54:30.395Z,13.34
2019-03-25T06:56:59.597Z,13.75
2019-03-25T06:59:28.792Z,14.13
2019-03-25T07:01:57.916Z,14.56
2019-03-25T07:04:27.129Z,14.62
2019-03-25T07:06:56.378Z,15.01
2019-03-25T07:09:25.536Z,15.22
2019-03-25T07:11:55.041Z,15.54
2019-03-25T07:14:24.789Z,15.56
2019-03-25T07:16:54.003Z,15.47
2019-03-25T07:19:23.216Z,15.47
2019-03-25T07:21:52.483Z,15.65
2019-03-25T07:24:21.603Z,15.85
2019-03-25T07:26:50.749Z,16.25
2019-03-25T07:29:19.920Z,16.29
2019-03-25T07:31:49.234Z,16.51
2019-03-25T07:34:18.376Z,16.77
2019-03-25T07:36:47.656Z,16.93
2019-03-25T07:39:16.816Z,17.11
2019-03-25T07:41:46.072Z,17.19
2019-03-25T07:44:15.185Z,17.29
2019-03-25T07:46:44.788Z,17.87
2019-03-25T07:49:14.020Z,18.52
2019-03-25T07:51:43.188Z,18.69
2019-03-25T07:54:12.359Z,18.83
2019-03-25T07:56:41.609Z,18.47
2019-03-25T07:59:10.803Z,18.48
2019-03-25T08:01:40.075Z,18.81
2019-03-25T08:04:09.335Z,18.91
2019-03-25T08:06:38.546Z,19.25
2019-03-25T08:09:09.183Z,19.63
2019-03-25T08:11:38.424Z,20.11
2019-03-25T08:14:07.687Z,20.06
2019-03-25T08:16:36.831Z,20.59
2019-03-25T08:19:06.237Z,20.93
2019-03-25T08:21:35.480Z,21.07
2019-03-25T08:24:04.781Z,21.20
2019-03-25T08:26:34.037Z,21.32
2019-03-25T08:29:03.225Z,20.65
2019-03-25T08:31:32.431Z,20.52
2019-03-25T08:34:01.578Z,19.98
2019-03-25T08:36:30.746Z,20.28
2019-03-25T08:38:59.959Z,20.87
2019-03-25T08:41:29.191Z,21.20
2019-03-25T08:43:58.505Z,21.35
2019-03-25T08:46:27.723Z,20.75
2019-03-25T08:48:57.007Z,21.06
2019-03-25T08:51:26.234Z,21.47
2019-03-25T08:53:55.532Z,21.35
2019-03-25T08:56:24.884Z,21.46
2019-03-25T08:58:54.220Z,21.14
2019-03-25T09:01:23.509Z,21.05
2019-03-25T09:03:52.777Z,21.44
2019-03-25T09:06:22.037Z,21.61
2019-03-25T09:08:51.234Z,21.53
2019-03-25T09:11:20.446Z,21.51
2019-03-25T09:13:49.694Z,21.51
2019-03-25T09:16:18.922Z,21.81
2019-03-25T09:18:48.186Z,22.11
2019-03-25T09:21:17.680Z,22.00
2019-03-25T09:23:46.909Z,22.07
2019-03-25T09:26:16.103Z,22.17
2019-03-25T09:28:45.274Z,21.84
2019-03-25T09:31:15.092Z,21.49
2019-03-25T09:33:44.836Z,21.86
2019-03-25T09:36:14.665Z,22.01
2019-03-25T09:38:43.877Z,22.29
2019-03-25T09:41:13.304Z,22.43
2019-03-25T09:43:42.597Z,22.83
2019-03-25T09:46:11.800Z,22.93
2019-03-25T09:48:41.210Z,23.30
2019-03-25T09:51:10.455Z,22.60
2019-03-25T09:53:39.816Z,22.69
2019-03-25T09:56:09.026Z,22.91
2019-03-25T09:58:38.264Z,23.28
2019-03-25T10:01:07.470Z,22.98
2019-03-25T10:03:36.722Z,22.91
2019-03-25T10:06:06.180Z,23.14
2019-03-25T10:08:35.481Z,23.58
2019-03-25T10:11:05.338Z,23.67
2019-03-25T10:13:34.508Z,23.83
2019-03-25T10:16:03.830Z,23.67
2019-03-25T10:18:32.979Z,23.52
2019-03-25T10:21:02.235Z,23.75
2019-03-25T10:23:31.525Z,23.36
2019-03-25T10:26:00.842Z,23.49
2019-03-25T10:28:30.090Z,23.59
2019-03-25T10:30:59.367Z,24.05
2019-03-25T10:33:28.520Z,23.89
2019-03-25T10:35:57.847Z,24.29
2019-03-25T10:38:27.020Z,24.89
2019-03-25T10:40:56.287Z,25.47
2019-03-25T10:43:25.556Z,25.75
2019-03-25T10:45:54.922Z,25.70
2019-03-25T10:48:24.172Z,25.68
2019-03-25T10:50:53.326Z,25.97
2019-03-25T10:53:22.727Z,26.13
2019-03-25T10:55:52.022Z,25.67
2019-03-25T10:58:21.615Z,25.02
2019-03-25T11:00:50.944Z,25.86
2019-03-25T11:03:20.131Z,25.63
2019-03-25T11:05:49.460Z,26.09
2019-03-25T11:08:18.687Z,25.62
2019-03-25T11:10:47.901Z,26.10
2019-03-25T11:13:17.106Z,26.39
2019-03-25T11:15:46.301Z,26.55
2019-03-25T11:18:15.515Z,26.24
2019-03-25T11:20:44.790Z,26.72
2019-03-25T11:23:14.018Z,26.64
2019-03-25T11:25:43.214Z,26.54
2019-03-25T11:28:12.473Z,26.51
2019-03-25T11:30:55.171Z,26.28
2019-03-25T11:33:24.709Z,26.62
2019-03-25T11:35:54.233Z,26.65
2019-03-25T11:38:23.427Z,27.06
2019-03-25T11:40:52.684Z,26.67
2019-03-25T11:43:22.005Z,26.97
2019-03-25T11:45:53.656Z,28.08
2019-03-25T11:48:22.906Z,28.17
2019-03-25T11:50:52.101Z,28.23
2019-03-25T11:53:21.308Z,28.52
2019-03-25T11:55:50.670Z,28.35
2019-03-25T11:58:19.985Z,27.46
2019-03-25T12:00:49.111Z,27.46
2019-03-25T12:03:18.283Z,26.76
2019-03-25T12:05:47.497Z,26.00
2019-03-25T12:08:16.765Z,26.36
2019-03-25T12:10:46.101Z,26.81
2019-03-25T12:13:15.379Z,26.33
2019-03-25T12:15:44.784Z,26.67
2019-03-25T12:18:13.989Z,26.25
2019-03-25T12:20:43.053Z,26.40
2019-03-25T12:23:12.387Z,26.66
2019-03-25T12:25:41.624Z,26.95
2019-03-25T12:28:10.841Z,26.99
2019-03-25T12:30:40.037Z,26.51
2019-03-25T12:33:09.213Z,26.22
2019-03-25T12:35:38.364Z,26.54
2019-03-25T12:38:07.570Z,26.54
2019-03-25T12:40:36.944Z,26.58
2019-03-25T12:43:06.168Z,26.17
2019-03-25T12:45:35.434Z,25.74
2019-03-25T12:48:05.072Z,25.84
2019-03-25T12:50:34.431Z,25.34
2019-03-25T12:53:03.574Z,24.54
2019-03-25T12:55:32.878Z,25.13
2019-03-25T12:58:02.115Z,25.84
2019-03-25T13:00:40.215Z,25.78
2019-03-25T13:03:09.624Z,25.64
2019-03-25T13:05:38.940Z,24.97
2019-03-25T13:08:08.183Z,24.25
2019-03-25T13:10:37.386Z,24.14
2019-03-25T13:13:06.783Z,24.62
2019-03-25T13:15:36.292Z,25.37
2019-03-25T13:18:05.812Z,25.60
2019-03-25T13:20:34.993Z,25.79
2019-03-25T13:23:04.252Z,25.13
2019-03-25T13:25:33.382Z,24.33
2019-03-25T13:28:02.600Z,23.70
2019-03-25T13:30:31.909Z,23.64
2019-03-25T13:33:01.056Z,24.36
2019-03-25T13:35:30.183Z,24.54
2019-03-25T13:37:59.450Z,24.28
2019-03-25T13:40:28.799Z,24.70
2019-03-25T13:42:58.185Z,24.33
2019-03-25T13:45:27.812Z,23.54
2019-03-25T13:47:58.049Z,23.33
2019-03-25T13:50:27.302Z,23.52
2019-03-25T13:52:56.541Z,24.55
2019-03-25T13:55:26.741Z,24.90
2019-03-25T13:57:56.364Z,25.44
2019-03-25T14:00:36.961Z,25.61
2019-03-25T14:03:06.201Z,24.81
2019-03-25T14:05:35.425Z,24.36
2019-03-25T14:08:04.618Z,24.42
2019-03-25T14:10:33.865Z,24.67
2019-03-25T14:13:03.054Z,23.64
2019-03-25T14:15:32.210Z,23.90
2019-03-25T14:18:01.444Z,24.45
2019-03-25T14:20:30.648Z,24.41
2019-03-25T14:22:59.916Z,24.42
2019-03-25T14:25:29.067Z,24.54
2019-03-25T14:27:59.258Z,23.95
2019-03-25T14:30:28.712Z,24.21
2019-03-25T14:32:57.945Z,23.79
2019-03-25T14:35:27.949Z,23.32
2019-03-25T14:37:57.208Z,23.04
2019-03-25T14:40:26.556Z,22.80
2019-03-25T14:42:55.672Z,23.35
2019-03-25T14:45:26.761Z,23.52
2019-03-25T14:47:55.875Z,23.18
2019-03-25T14:50:25.095Z,23.00
2019-03-25T14:52:54.506Z,23.20
2019-03-25T14:55:23.736Z,23.71
2019-03-25T14:57:52.875Z,23.92
2019-03-25T15:00:25.490Z,24.12
2019-03-25T15:02:53.019Z,24.20
2019-03-25T15:05:22.290Z,23.90
2019-03-25T15:07:51.484Z,23.91
2019-03-25T15:10:21.322Z,23.69
2019-03-25T15:12:50.444Z,23.40
2019-03-25T15:15:19.644Z,22.93
2019-03-25T15:17:48.865Z,22.93
2019-03-25T15:20:18.344Z,23.01
2019-03-25T15:22:47.618Z,22.98
2019-03-25T15:25:16.864Z,23.01
2019-03-25T15:27:46.151Z,23.06
2019-03-25T15:30:15.442Z,22.82
2019-03-25T15:32:44.613Z,22.90
2019-03-25T15:35:14.318Z,23.06
2019-03-25T15:37:44.506Z,22.79
2019-03-25T15:40:14.634Z,22.88
2019-03-25T15:42:43.857Z,22.87
2019-03-25T15:45:13.058Z,22.48
2019-03-25T15:47:45.833Z,21.95
2019-03-25T15:50:14.175Z,21.57
2019-03-25T15:52:43.673Z,21.28
2019-03-25T15:55:13.001Z,21.34
2019-03-25T15:57:42.213Z,21.25
2019-03-25T16:00:14.707Z,21.11
2019-03-25T16:02:44.318Z,20.67
2019-03-25T16:05:14.131Z,20.32
2019-03-25T16:07:43.317Z,20.29
2019-03-25T16:10:14.760Z,20.16
2019-03-25T16:12:43.827Z,19.73
2019-03-25T16:15:13.819Z,19.74
2019-03-25T16:17:43.369Z,19.43
2019-03-25T16:20:13.136Z,19.04
2019-03-25T16:22:42.205Z,18.80
2019-03-25T16:25:14.368Z,18.35
2019-03-25T16:27:43.436Z,18.22
2019-03-25T16:30:12.654Z,17.66
2019-03-25T16:32:42.104Z,17.39
2019-03-25T16:35:12.127Z,17.09
2019-03-25T16:37:41.502Z,16.86
2019-03-25T16:40:11.845Z,16.54
2019-03-25T16:42:41.060Z,16.26
2019-03-25T16:45:11.189Z,16.04
2019-03-25T16:47:40.647Z,15.81
2019-03-25T16:50:10.129Z,15.63
2019-03-25T16:52:39.342Z,15.42
2019-03-25T16:55:08.740Z,15.36
2019-03-25T16:57:38.145Z,15.24
2019-03-25T17:00:07.709Z,15.14
2019-03-25T17:02:37.030Z,14.94
2019-03-25T17:05:06.759Z,14.93
2019-03-25T17:07:35.987Z,14.80
2019-03-25T17:10:06.462Z,14.72
2019-03-25T17:12:35.685Z,14.62
2019-03-25T17:15:09.553Z,14.55
2019-03-25T17:17:38.938Z,14.50
2019-03-25T17:20:08.809Z,14.43
2019-03-25T17:22:38.024Z,14.37
2019-03-25T17:25:08.081Z,14.31
2019-03-25T17:27:37.293Z,14.27
2019-03-25T17:30:17.361Z,14.23
2019-03-25T17:32:46.446Z,14.16
2019-03-25T17:35:15.781Z,14.06
2019-03-25T17:37:44.989Z,14.02
2019-03-25T17:40:14.507Z,13.90
2019-03-25T17:42:43.959Z,13.89
2019-03-25T17:45:13.602Z,13.91
2019-03-25T17:47:44.384Z,13.79
2019-03-25T17:50:13.965Z,13.69
2019-03-25T17:52:43.223Z,13.69
2019-03-25T17:55:12.830Z,13.63
2019-03-25T17:57:41.988Z,13.62
2019-03-25T18:00:12.926Z,13.55
2019-03-25T18:02:42.193Z,13.50
2019-03-25T18:05:11.890Z,13.44
2019-03-25T18:07:41.172Z,13.40
2019-03-25T18:10:11.459Z,13.37
2019-03-25T18:12:40.813Z,13.34
2019-03-25T18:15:12.242Z,13.28
2019-03-25T18:17:41.408Z,13.34
2019-03-25T18:20:18.684Z,13.34
2019-03-25T18:22:41.564Z,13.34
2019-03-25T18:25:10.866Z,13.34
2019-03-25T18:27:39.993Z,13.38
2019-03-25T18:30:09.772Z,13.42
2019-03-25T18:32:38.991Z,13.37
2019-03-25T18:35:08.401Z,13.41
2019-03-25T18:37:38.207Z,13.45
2019-03-25T18:40:07.472Z,13.45
2019-03-25T18:42:36.625Z,13.43
2019-03-25T18:45:06.864Z,13.45
2019-03-25T18:47:36.083Z,13.44
2019-03-25T18:50:07.622Z,13.45
2019-03-25T18:52:36.902Z,13.43
2019-03-25T18:55:07.441Z,13.46
2019-03-25T18:57:36.756Z,13.45
2019-03-25T19:00:08.961Z,13.46
2019-03-25T19:02:38.345Z,13.45
2019-03-25T19:05:08.150Z,13.47
2019-03-25T19:07:37.514Z,13.47
2019-03-25T19:10:14.446Z,13.43
2019-03-25T19:12:43.143Z,13.44
2019-03-25T19:15:13.710Z,13.42
2019-03-25T19:17:42.864Z,13.43
2019-03-25T19:20:12.222Z,13.42
2019-03-25T19:22:41.460Z,13.39
2019-03-25T19:25:10.807Z,13.36
2019-03-25T19:27:40.222Z,13.38
2019-03-25T19:30:10.995Z,13.36
2019-03-25T19:32:41.383Z,13.40
2019-03-25T19:35:10.918Z,13.39
2019-03-25T19:37:40.133Z,13.35
2019-03-25T19:40:11.213Z,13.32
2019-03-25T19:42:40.531Z,13.29
2019-03-25T19:45:10.639Z,13.29
2019-03-25T19:47:39.822Z,13.29
2019-03-25T19:50:13.589Z,13.32
2019-03-25T19:52:42.894Z,13.27
2019-03-25T19:55:12.324Z,13.19
2019-03-25T19:57:41.637Z,13.15
2019-03-25T20:00:12.862Z,13.08
2019-03-25T20:02:42.075Z,13.03
2019-03-25T20:05:12.359Z,12.97
2019-03-25T20:07:41.618Z,12.92
2019-03-25T20:10:13.786Z,12.92
2019-03-25T20:12:43.122Z,12.88
2019-03-25T20:15:12.419Z,12.85
2019-03-25T20:17:41.782Z,12.83
2019-03-25T20:20:11.870Z,12.71
2019-03-25T20:22:41.097Z,12.67
2019-03-25T20:25:10.548Z,12.61
2019-03-25T20:27:39.811Z,12.49
2019-03-25T20:30:12.395Z,12.40
2019-03-25T20:32:41.683Z,12.37
2019-03-25T20:35:11.964Z,12.31
2019-03-25T20:37:41.198Z,12.20
2019-03-25T20:40:11.017Z,12.07
2019-03-25T20:42:40.327Z,11.98
2019-03-25T20:45:09.860Z,11.84
2019-03-25T20:47:39.182Z,11.69
2019-03-25T20:50:08.992Z,11.54
2019-03-25T20:52:38.196Z,11.47
2019-03-25T20:55:08.580Z,11.43
2019-03-25T20:57:40.494Z,11.40
2019-03-25T21:00:11.508Z,11.33
2019-03-25T21:02:45.373Z,11.31
2019-03-25T21:05:12.335Z,11.25
2019-03-25T21:07:41.696Z,11.18
2019-03-25T21:10:11.338Z,11.13
2019-03-25T21:12:40.712Z,11.11
2019-03-25T21:15:11.230Z,11.04
2019-03-25T21:17:40.614Z,11.01
2019-03-25T21:20:10.142Z,10.99
2019-03-25T21:22:39.355Z,10.94
2019-03-25T21:25:08.760Z,10.89
2019-03-25T21:27:38.024Z,10.86
2019-03-25T21:30:09.072Z,10.79
2019-03-25T21:32:38.541Z,10.74
2019-03-25T21:35:08.713Z,10.64
2019-03-25T21:37:38.083Z,10.60
2019-03-25T21:40:07.727Z,10.57
2019-03-25T21:42:37.029Z,10.50
2019-03-25T21:45:09.704Z,10.43
2019-03-25T21:47:38.928Z,10.42
2019-03-25T21:50:08.839Z,10.40
2019-03-25T21:52:38.190Z,10.34
2019-03-25T21:55:08.010Z,10.30
2019-03-25T21:57:37.255Z,10.26
2019-03-25T22:00:07.715Z,10.24
2019-03-25T22:02:36.920Z,10.21
2019-03-25T22:05:10.185Z,10.19
2019-03-25T22:07:39.377Z,10.18
2019-03-25T22:10:08.721Z,10.15
2019-03-25T22:12:37.894Z,10.11
2019-03-25T22:15:09.474Z,10.06
2019-03-25T22:17:39.556Z,10.03
2019-03-25T22:20:10.464Z,9.96
2019-03-25T22:22:39.685Z,9.92
2019-03-25T22:25:09.517Z,9.87
2019-03-25T22:27:38.738Z,9.81
2019-03-25T22:30:09.007Z,9.77
2019-03-25T22:32:38.145Z,9.74
2019-03-25T22:35:07.589Z,9.72
2019-03-25T22:37:36.792Z,9.71
2019-03-25T22:40:07.991Z,9.72
2019-03-25T22:42:37.226Z,9.72
2019-03-25T22:45:07.920Z,9.67
2019-03-25T22:47:37.406Z,9.66
2019-03-25T22:50:12.501Z,9.67
2019-03-25T22:52:41.727Z,9.63
2019-03-25T22:55:11.056Z,9.60
2019-03-25T22:57:40.209Z,9.60
2019-03-25T23:00:10.239Z,9.55
2019-03-25T23:02:39.497Z,9.55
2019-03-25T23:05:10.417Z,9.57
2019-03-25T23:07:39.614Z,9.55
2019-03-25T23:10:09.191Z,9.57
2019-03-25T23:12:38.397Z,9.64
2019-03-25T23:15:07.910Z,9.62
2019-03-25T23:17:37.098Z,9.65
2019-03-25T23:20:06.820Z,9.65
2019-03-25T23:22:35.935Z,9.65
2019-03-25T23:25:06.734Z,9.72
2019-03-25T23:27:36.085Z,9.76
2019-03-25T23:30:07.596Z,9.82
2019-03-25T23:32:36.802Z,9.83
2019-03-25T23:35:07.235Z,9.74
2019-03-25T23:37:36.436Z,9.68
2019-03-25T23:40:06.641Z,9.67
2019-03-25T23:42:35.875Z,9.70
2019-03-25T23:45:07.090Z,9.59
2019-03-25T23:47:36.307Z,9.55
2019-03-25T23:50:07.550Z,9.53
2019-03-25T23:52:36.677Z,9.49
2019-03-25T23:55:07.074Z,9.40
2019-03-25T23:57:36.290Z,9.21
